Gibson Island, Maryland
Current Conditions -  °F | °C
As of 4:54 PM on Saturday 25 Oct 2014 (Local Time) from KNAK Reporting Station
Broken Clouds Broken Clouds  
Wind Chill: 70°   Ceiling: 12000
Heat Index: 70°   Visibility: 10mi
Dew Point: 43°   Wind: 7mph
Humidity: 38%   Direction: 230°SW
Pressure: 29.76"   Gusts: NA
Location:  39.08°N, 76.43°W
Report Text: KNAK 252054Z AUTO 23006KT 10SM BKN120 21/06 A2976 RMK AO2 SLP080 T02110061 56024
Loading
Personal Weather Stations






























Interactive Weather Map
Tropical Storm Tracking
New forecast layout! Learn more

10-Day Weather Forecast

Advertisements
Track Severe Weather on mobile